createdAt,value
2023-06-27T00:01:31.252Z,95149.47
2023-06-27T00:04:01.627Z,95143.13
2023-06-27T00:06:28.520Z,95136.16
2023-06-27T00:08:55.120Z,95135.50
2023-06-27T00:11:21.621Z,95142.75
2023-06-27T00:13:49.523Z,95143.06
2023-06-27T00:16:18.668Z,95140.53
2023-06-27T00:18:51.265Z,95149.56
2023-06-27T00:21:18.316Z,95151.31
2023-06-27T00:23:44.954Z,95148.81
2023-06-27T00:26:13.199Z,95148.97
2023-06-27T00:28:39.818Z,95158.28
2023-06-27T00:31:06.417Z,95154.31
2023-06-27T00:36:22.476Z,95151.31
2023-06-27T00:38:49.211Z,95157.00
2023-06-27T00:41:16.088Z,95157.63
2023-06-27T00:43:42.815Z,95156.03
2023-06-27T00:46:09.880Z,95164.56
2023-06-27T00:48:40.297Z,95158.09
2023-06-27T00:51:09.071Z,95157.47
2023-06-27T00:53:35.735Z,95153.19
2023-06-27T00:56:02.958Z,95159.66
2023-06-27T00:58:31.036Z,95164.25
2023-06-27T01:01:01.921Z,95160.78
2023-06-27T01:03:33.860Z,95161.25
2023-06-27T01:06:07.837Z,95175.34
2023-06-27T01:08:37.920Z,95168.22
2023-06-27T01:11:09.141Z,95165.75
2023-06-27T01:13:38.640Z,95164.78
2023-06-27T01:16:06.447Z,95167.97
2023-06-27T01:18:33.839Z,95172.38
2023-06-27T01:21:02.025Z,95163.66
2023-06-27T01:23:32.552Z,95170.44
2023-06-27T01:26:04.804Z,95171.72
2023-06-27T01:28:34.404Z,95171.41
2023-06-27T01:31:02.498Z,95158.28
2023-06-27T01:33:31.667Z,95162.09
2023-06-27T01:36:01.450Z,95162.09
2023-06-27T01:38:36.745Z,95160.50
2023-06-27T01:41:09.684Z,95156.56
2023-06-27T01:43:37.528Z,95166.59
2023-06-27T01:46:04.664Z,95159.66
2023-06-27T01:48:31.700Z,95160.78
2023-06-27T01:50:58.341Z,95154.00
2023-06-27T01:53:25.158Z,95153.81
2023-06-27T01:55:51.789Z,95160.59
2023-06-27T01:58:19.973Z,95162.00
2023-06-27T02:00:46.651Z,95164.53
2023-06-27T02:03:13.559Z,95163.41
2023-06-27T02:05:40.429Z,95162.63
2023-06-27T02:08:07.267Z,95159.31
2023-06-27T02:10:33.782Z,95158.03
2023-06-27T02:13:02.162Z,95172.41
2023-06-27T02:15:30.053Z,95169.38
2023-06-27T02:18:05.559Z,95168.88
2023-06-27T02:20:32.198Z,95177.25
2023-06-27T02:23:00.342Z,95169.81
2023-06-27T02:25:27.727Z,95167.94
2023-06-27T02:27:54.233Z,95164.75
2023-06-27T02:30:20.827Z,95167.25
2023-06-27T02:32:48.989Z,95173.06
2023-06-27T02:35:17.310Z,95165.44
2023-06-27T02:37:44.215Z,95169.06
2023-06-27T02:40:11.161Z,95161.97
2023-06-27T02:42:37.703Z,95165.63
2023-06-27T02:45:04.605Z,95171.50
2023-06-27T02:47:31.254Z,95165.63
2023-06-27T02:49:59.153Z,95162.75
2023-06-27T02:52:25.883Z,95169.69
2023-06-27T02:54:53.481Z,95171.88
2023-06-27T02:57:21.254Z,95175.44
2023-06-27T02:59:48.702Z,95175.84
2023-06-27T03:02:17.357Z,95170.63
2023-06-27T03:04:43.968Z,95174.72
2023-06-27T03:07:11.898Z,95178.31
2023-06-27T03:09:38.462Z,95184.75
2023-06-27T03:12:05.519Z,95184.16
2023-06-27T03:14:33.212Z,95189.41
2023-06-27T03:17:00.077Z,95189.19
2023-06-27T03:19:38.878Z,95186.97
2023-06-27T03:22:13.999Z,95196.19
2023-06-27T03:24:40.634Z,95180.97
2023-06-27T03:27:07.253Z,95180.13
2023-06-27T03:29:37.755Z,95189.59
2023-06-27T03:32:05.195Z,95179.56
2023-06-27T03:34:32.878Z,95183.22
2023-06-27T03:36:59.694Z,95194.97
2023-06-27T03:39:27.644Z,95195.94
2023-06-27T03:41:54.194Z,95192.28
2023-06-27T03:44:21.409Z,95206.34
2023-06-27T03:46:48.499Z,95205.03
2023-06-27T03:49:16.096Z,95195.63
2023-06-27T03:51:42.865Z,95197.13
2023-06-27T03:54:10.417Z,95201.00
2023-06-27T03:56:38.384Z,95198.81
2023-06-27T03:59:04.936Z,95204.66
2023-06-27T04:01:31.547Z,95212.59
2023-06-27T04:03:59.730Z,95209.72
2023-06-27T04:06:26.854Z,95210.44
2023-06-27T04:08:53.848Z,95222.81
2023-06-27T04:11:20.490Z,95217.94
2023-06-27T04:13:49.144Z,95224.09
2023-06-27T04:16:15.826Z,95223.91
2023-06-27T04:18:42.574Z,95226.56
2023-06-27T04:21:09.323Z,95216.84
2023-06-27T04:23:35.834Z,95220.53
2023-06-27T04:26:06.080Z,95216.66
2023-06-27T04:28:32.825Z,95210.59
2023-06-27T04:31:01.685Z,95216.47
2023-06-27T04:33:28.697Z,95220.53
2023-06-27T04:35:55.671Z,95227.59
2023-06-27T04:38:22.226Z,95227.88
2023-06-27T04:40:48.798Z,95230.53
2023-06-27T04:43:15.587Z,95229.75
2023-06-27T04:45:42.468Z,95226.38
2023-06-27T04:48:10.594Z,95223.81
2023-06-27T04:50:37.252Z,95223.31
2023-06-27T04:53:05.196Z,95219.53
2023-06-27T04:55:32.546Z,95223.50
2023-06-27T04:57:59.209Z,95226.84
2023-06-27T05:00:25.748Z,95234.78
2023-06-27T05:02:52.358Z,95224.31
2023-06-27T05:05:20.288Z,95228.56
2023-06-27T05:07:46.828Z,95233.91
2023-06-27T05:10:13.329Z,95236.09
2023-06-27T05:12:40.046Z,95225.69
2023-06-27T05:15:07.176Z,95231.22
2023-06-27T05:17:33.926Z,95226.06
2023-06-27T05:20:00.608Z,95231.63
2023-06-27T05:22:28.503Z,95230.25
2023-06-27T05:24:55.026Z,95226.69
2023-06-27T05:27:21.698Z,95234.13
2023-06-27T05:29:48.364Z,95233.91
2023-06-27T05:32:14.940Z,95237.50
2023-06-27T05:34:41.473Z,95234.81
2023-06-27T05:37:08.039Z,95246.91
2023-06-27T05:39:35.912Z,95243.13
2023-06-27T05:42:02.507Z,95236.38
2023-06-27T05:44:29.056Z,95236.56
2023-06-27T05:46:55.619Z,95235.72
2023-06-27T05:49:22.117Z,95237.50
2023-06-27T05:51:48.702Z,95236.91
2023-06-27T05:54:15.229Z,95231.25
2023-06-27T05:56:43.172Z,95240.25
2023-06-27T05:59:09.772Z,95241.56
2023-06-27T06:01:38.480Z,95237.81
2023-06-27T06:04:05.778Z,95241.06
2023-06-27T06:06:35.238Z,95238.47
2023-06-27T06:09:01.888Z,95238.00
2023-06-27T06:11:29.774Z,95239.69
2023-06-27T06:13:57.921Z,95231.47
2023-06-27T06:16:25.198Z,95229.84
2023-06-27T06:18:52.036Z,95227.75
2023-06-27T06:21:18.673Z,95227.84
2023-06-27T06:23:47.564Z,95227.94
2023-06-27T06:26:14.070Z,95237.00
2023-06-27T06:28:40.848Z,95228.16
2023-06-27T06:31:12.076Z,95230.41
2023-06-27T06:33:38.712Z,95221.31
2023-06-27T06:36:05.738Z,95228.25
2023-06-27T06:38:32.281Z,95227.66
2023-06-27T06:40:58.806Z,95216.84
2023-06-27T06:43:26.558Z,95230.94
2023-06-27T06:45:53.446Z,95236.19
2023-06-27T06:48:21.626Z,95236.09
2023-06-27T06:50:48.197Z,95229.56
2023-06-27T06:53:14.722Z,95227.66
2023-06-27T06:55:41.406Z,95229.47
2023-06-27T06:58:08.862Z,95222.91
2023-06-27T07:00:36.433Z,95222.31
2023-06-27T07:03:04.633Z,95220.81
2023-06-27T07:05:32.615Z,95215.16
2023-06-27T07:07:59.122Z,95211.34
2023-06-27T07:10:25.731Z,95210.72
2023-06-27T07:12:52.220Z,95205.47
2023-06-27T07:15:19.636Z,95198.22
2023-06-27T07:17:46.221Z,95198.41
2023-06-27T07:20:13.375Z,95189.97
2023-06-27T07:22:41.501Z,95187.81
2023-06-27T07:25:08.511Z,95203.75
2023-06-27T07:27:35.010Z,95213.94
2023-06-27T07:30:01.682Z,95201.91
2023-06-27T07:32:28.693Z,95198.69
2023-06-27T07:34:55.668Z,95203.84
2023-06-27T07:37:22.283Z,95191.28
2023-06-27T07:39:50.377Z,95187.69
2023-06-27T07:42:18.598Z,95189.44
2023-06-27T07:44:45.342Z,95193.63
2023-06-27T07:47:11.947Z,95205.34
2023-06-27T07:49:39.058Z,95202.03
2023-06-27T07:52:06.935Z,95205.09
2023-06-27T07:54:33.562Z,95196.59
2023-06-27T07:57:01.451Z,95192.66
2023-06-27T07:59:27.992Z,95198.88
2023-06-27T08:01:55.500Z,95197.97
2023-06-27T08:04:22.738Z,95201.31
2023-06-27T08:06:49.659Z,95198.00
2023-06-27T08:09:16.465Z,95199.28
2023-06-27T08:11:43.239Z,95187.13
2023-06-27T08:14:11.159Z,95188.41
2023-06-27T08:16:37.678Z,95188.91
2023-06-27T08:19:04.291Z,95185.47
2023-06-27T08:21:30.919Z,95186.88
2023-06-27T08:23:57.597Z,95182.94
2023-06-27T08:26:24.189Z,95178.44
2023-06-27T08:28:50.886Z,95193.03
2023-06-27T08:31:18.969Z,95181.34
2023-06-27T08:33:45.672Z,95180.72
2023-06-27T08:36:12.511Z,95180.28
2023-06-27T08:38:39.061Z,95179.47
2023-06-27T08:41:05.745Z,95176.34
2023-06-27T08:43:32.390Z,95168.91
2023-06-27T08:45:58.998Z,95166.53
2023-06-27T08:48:26.989Z,95164.34
2023-06-27T08:50:54.320Z,95167.66
2023-06-27T08:53:22.272Z,95160.47
2023-06-27T08:55:53.987Z,95156.19
2023-06-27T08:58:25.750Z,95160.97
2023-06-27T09:00:53.854Z,95162.56
2023-06-27T09:03:21.100Z,95160.75
2023-06-27T09:05:49.469Z,95157.88
2023-06-27T09:08:16.484Z,95160.53
2023-06-27T09:10:45.675Z,95154.84
2023-06-27T09:13:13.395Z,95154.66
2023-06-27T09:15:40.413Z,95156.75
2023-06-27T09:18:07.278Z,95156.63
2023-06-27T09:20:34.520Z,95162.00
2023-06-27T09:23:06.865Z,95160.25
2023-06-27T09:25:33.589Z,95158.97
2023-06-27T09:28:13.918Z,95158.91
2023-06-27T09:30:40.610Z,95159.38
2023-06-27T09:33:07.338Z,95164.78
2023-06-27T09:35:59.427Z,95165.25
2023-06-27T09:41:02.541Z,95173.22
2023-06-27T09:43:31.244Z,95165.66
2023-06-27T09:45:57.985Z,95167.41
2023-06-27T09:48:25.072Z,95161.75
2023-06-27T09:50:58.291Z,95161.75
2023-06-27T09:53:26.313Z,95161.78
2023-06-27T09:55:56.864Z,95163.97
2023-06-27T09:58:26.826Z,95165.75
2023-06-27T10:00:53.572Z,95160.69
2023-06-27T10:03:21.707Z,95158.03
2023-06-27T10:05:59.044Z,95161.19
2023-06-27T10:08:36.532Z,95160.53
2023-06-27T10:11:03.140Z,95152.94
2023-06-27T10:13:29.705Z,95150.41
2023-06-27T10:15:56.380Z,95151.34
2023-06-27T10:18:23.383Z,95150.53
2023-06-27T10:20:51.322Z,95151.31
2023-06-27T10:23:18.236Z,95155.53
2023-06-27T10:25:46.792Z,95147.16
2023-06-27T10:28:14.814Z,95155.91
2023-06-27T10:30:44.447Z,95149.75
2023-06-27T10:33:19.553Z,95155.22
2023-06-27T10:35:50.945Z,95148.53
2023-06-27T10:38:19.097Z,95155.00
2023-06-27T10:41:06.230Z,95140.53
2023-06-27T10:43:37.985Z,95147.63
2023-06-27T10:46:08.312Z,95140.16
2023-06-27T10:48:35.715Z,95143.28
2023-06-27T10:51:07.140Z,95140.41
2023-06-27T10:53:34.339Z,95131.78
2023-06-27T10:56:14.526Z,95137.59
2023-06-27T10:58:45.837Z,95138.25
2023-06-27T11:01:15.262Z,95144.16
2023-06-27T11:03:43.723Z,95142.44
2023-06-27T11:06:10.482Z,95142.44
2023-06-27T11:08:38.879Z,95136.72
2023-06-27T11:11:06.800Z,95124.97
2023-06-27T11:13:37.437Z,95138.69
2023-06-27T11:16:06.078Z,95130.41
2023-06-27T11:18:34.200Z,95131.44
2023-06-27T11:21:00.819Z,95135.66
2023-06-27T11:23:27.456Z,95124.31
2023-06-27T11:25:54.993Z,95131.22
2023-06-27T11:28:22.511Z,95125.63
2023-06-27T11:30:50.312Z,95123.53
2023-06-27T11:33:19.002Z,95132.44
2023-06-27T11:35:45.830Z,95120.47
2023-06-27T11:38:12.773Z,95122.38
2023-06-27T11:40:49.048Z,95108.44
2023-06-27T12:00:27.590Z,95102.09
2023-06-27T12:02:55.727Z,95095.53
2023-06-27T12:08:06.289Z,95094.38
2023-06-27T12:10:34.305Z,95089.16
2023-06-27T12:13:04.745Z,95088.25
2023-06-27T12:15:31.965Z,95086.13
2023-06-27T12:17:59.516Z,95087.00
2023-06-27T12:20:30.990Z,95087.13
2023-06-27T12:22:59.558Z,95077.25
2023-06-27T12:28:24.051Z,95071.47
2023-06-27T12:30:53.057Z,95068.16
2023-06-27T12:36:15.943Z,95063.00
2023-06-27T12:39:09.113Z,95063.38
2023-06-27T12:42:03.719Z,95059.69
2023-06-27T12:48:21.002Z,95053.53
2023-06-27T12:50:47.731Z,95057.09
2023-06-27T12:53:23.791Z,95056.44
2023-06-27T12:55:53.000Z,95057.22
2023-06-27T12:58:19.697Z,95051.34
2023-06-27T13:00:48.266Z,95050.22
2023-06-27T13:03:18.938Z,95054.03
2023-06-27T13:05:48.235Z,95040.81
2023-06-27T13:08:19.206Z,95040.28
2023-06-27T13:10:47.431Z,95035.22
2023-06-27T13:13:14.305Z,95033.41
2023-06-27T13:15:42.846Z,95032.72
2023-06-27T13:18:10.025Z,95036.03
2023-06-27T13:20:36.692Z,95033.31
2023-06-27T13:23:06.379Z,95031.97
2023-06-27T13:25:34.730Z,95032.84
2023-06-27T13:28:01.297Z,95025.88
2023-06-27T13:30:29.471Z,95029.28
2023-06-27T13:32:56.250Z,95029.09
2023-06-27T13:35:23.682Z,95023.81
2023-06-27T13:38:00.877Z,95018.88
2023-06-27T13:40:30.189Z,95010.06
2023-06-27T13:42:57.785Z,95011.06
2023-06-27T13:45:26.572Z,95008.66
2023-06-27T13:47:53.153Z,95007.28
2023-06-27T13:50:21.817Z,95008.16
2023-06-27T13:52:48.583Z,95010.41
2023-06-27T13:55:17.007Z,95012.06
2023-06-27T13:57:45.352Z,95009.81
2023-06-27T14:00:13.134Z,95004.94
2023-06-27T14:02:40.294Z,95010.34
2023-06-27T14:05:29.182Z,94999.63
2023-06-27T14:07:56.097Z,94990.81
2023-06-27T14:10:23.578Z,94990.66
2023-06-27T14:12:52.557Z,94986.13
2023-06-27T14:15:20.839Z,94984.22
2023-06-27T14:17:49.465Z,94974.69
2023-06-27T14:20:16.340Z,94974.81
2023-06-27T14:22:43.868Z,94970.25
2023-06-27T14:25:10.836Z,94967.25
2023-06-27T14:27:37.593Z,94966.38
2023-06-27T14:30:06.944Z,94959.06
2023-06-27T14:32:39.410Z,94963.16
2023-06-27T14:35:06.654Z,94964.22
2023-06-27T14:37:33.566Z,94954.53
2023-06-27T14:40:00.337Z,94960.03
2023-06-27T14:42:30.198Z,94960.53
2023-06-27T14:44:56.748Z,94960.19
2023-06-27T14:47:25.492Z,94945.69
2023-06-27T14:49:52.514Z,94947.88
2023-06-27T14:52:19.600Z,94955.66
2023-06-27T14:54:46.469Z,94945.53
2023-06-27T14:57:15.404Z,94950.50
2023-06-27T14:59:42.050Z,94936.91
2023-06-27T15:02:10.460Z,94943.41
2023-06-27T15:04:38.767Z,94938.19
2023-06-27T15:07:07.277Z,94951.69
2023-06-27T15:09:33.911Z,94942.63
2023-06-27T15:12:02.272Z,94936.91
2023-06-27T15:14:29.428Z,94929.56
2023-06-27T15:16:56.387Z,94931.94
2023-06-27T15:19:23.259Z,94922.94
2023-06-27T15:21:57.171Z,94935.72
2023-06-27T15:24:23.861Z,94931.25
2023-06-27T15:26:50.570Z,94935.66
2023-06-27T15:29:17.094Z,94928.69
2023-06-27T15:31:46.237Z,94921.59
2023-06-27T15:34:16.421Z,94930.44
2023-06-27T15:36:43.210Z,94923.19
2023-06-27T15:39:11.600Z,94914.63
2023-06-27T15:41:38.239Z,94918.22
2023-06-27T15:44:05.838Z,94920.56
2023-06-27T15:46:32.527Z,94921.63
2023-06-27T15:48:59.881Z,94917.00
2023-06-27T15:51:26.620Z,94915.78
2023-06-27T15:53:53.547Z,94914.00
2023-06-27T15:56:22.146Z,94914.25
2023-06-27T15:58:50.670Z,94917.28
2023-06-27T16:01:18.508Z,94910.78
2023-06-27T16:03:45.515Z,94911.34
2023-06-27T16:06:15.437Z,94912.38
2023-06-27T16:08:41.979Z,94904.28
2023-06-27T16:11:16.930Z,94904.22
2023-06-27T16:13:46.923Z,94912.19
2023-06-27T16:16:13.461Z,94898.00
2023-06-27T16:18:39.999Z,94903.47
2023-06-27T16:21:07.257Z,94901.13
2023-06-27T16:23:33.781Z,94909.13
2023-06-27T16:26:01.123Z,94899.72
2023-06-27T16:28:28.234Z,94905.47
2023-06-27T16:30:56.462Z,94898.75
2023-06-27T16:33:25.498Z,94910.47
2023-06-27T16:35:52.222Z,94912.63
2023-06-27T16:38:19.336Z,94911.38
2023-06-27T16:40:46.127Z,94912.53
2023-06-27T16:43:12.812Z,94908.50
2023-06-27T16:45:40.031Z,94916.97
2023-06-27T16:48:08.474Z,94914.28
2023-06-27T16:50:36.425Z,94912.84
2023-06-27T16:53:04.087Z,94913.97
2023-06-27T16:55:34.151Z,94911.97
2023-06-27T16:58:01.250Z,94915.44
2023-06-27T17:00:28.714Z,94914.19
2023-06-27T17:02:55.438Z,94919.38
2023-06-27T17:05:24.988Z,94925.13
2023-06-27T17:07:53.305Z,94932.00
2023-06-27T17:10:20.174Z,94926.69
2023-06-27T17:12:47.653Z,94925.69
2023-06-27T17:15:14.521Z,94929.50
2023-06-27T17:17:41.725Z,94930.97
2023-06-27T17:20:13.851Z,94926.81
2023-06-27T17:22:42.076Z,94925.34
2023-06-27T17:25:09.164Z,94919.50
2023-06-27T17:27:36.586Z,94922.44
2023-06-27T17:30:05.297Z,94925.91
2023-06-27T17:32:32.285Z,94924.22
2023-06-27T17:34:58.925Z,94923.19
2023-06-27T17:37:26.200Z,94932.84
2023-06-27T17:39:54.185Z,94942.03
2023-06-27T17:42:21.296Z,94947.88
2023-06-27T17:44:49.426Z,94934.56
2023-06-27T17:47:16.565Z,94935.00
2023-06-27T17:49:43.201Z,94936.63
2023-06-27T17:52:10.141Z,94936.34
2023-06-27T17:54:37.516Z,94933.63
2023-06-27T17:57:05.640Z,94934.34
2023-06-27T17:59:32.231Z,94933.31
2023-06-27T18:01:59.294Z,94932.13
2023-06-27T18:04:27.402Z,94929.19
2023-06-27T18:06:53.984Z,94933.97
2023-06-27T18:09:20.525Z,94930.97
2023-06-27T18:11:47.302Z,94941.72
2023-06-27T18:14:15.250Z,94933.66
2023-06-27T18:16:42.103Z,94938.69
2023-06-27T18:19:09.019Z,94938.69
2023-06-27T18:21:37.082Z,94935.22
2023-06-27T18:24:04.840Z,94939.03
2023-06-27T18:26:31.371Z,94933.66
2023-06-27T18:28:59.272Z,94938.25
2023-06-27T18:31:27.196Z,94939.03
2023-06-27T18:33:56.995Z,94937.13
2023-06-27T18:36:23.514Z,94937.13
2023-06-27T18:38:51.111Z,94937.78
2023-06-27T18:41:18.151Z,94933.66
2023-06-27T18:43:47.139Z,94938.03
2023-06-27T18:46:15.141Z,94939.13
2023-06-27T18:48:43.117Z,94945.63
2023-06-27T18:51:10.235Z,94929.78
2023-06-27T18:53:37.338Z,94935.97
2023-06-27T18:56:04.377Z,94931.22
2023-06-27T18:58:31.354Z,94934.28
2023-06-27T19:00:57.916Z,94936.16
2023-06-27T19:03:25.966Z,94941.53
2023-06-27T19:05:55.595Z,94938.53
2023-06-27T19:08:22.221Z,94926.97
2023-06-27T19:10:48.840Z,94930.75
2023-06-27T19:13:16.405Z,94937.28
2023-06-27T19:15:43.998Z,94934.59
2023-06-27T19:18:10.664Z,94931.09
2023-06-27T19:20:40.333Z,94933.47
2023-06-27T19:23:12.747Z,94940.75
2023-06-27T19:25:39.531Z,94941.53
2023-06-27T19:28:06.302Z,94945.81
2023-06-27T19:30:32.976Z,94950.41
2023-06-27T19:33:00.384Z,94951.50
2023-06-27T19:35:28.965Z,94952.94
2023-06-27T19:37:55.489Z,94957.06
2023-06-27T19:40:23.411Z,94954.25
2023-06-27T19:42:50.288Z,94948.75
2023-06-27T19:45:16.945Z,94952.53
2023-06-27T19:47:44.470Z,94962.50
2023-06-27T19:50:11.539Z,94960.47
2023-06-27T19:52:38.124Z,94964.59
2023-06-27T19:55:05.042Z,94966.81
2023-06-27T19:57:33.665Z,94975.41
2023-06-27T20:00:05.959Z,94974.47
2023-06-27T20:02:38.930Z,94969.75
2023-06-27T20:05:08.580Z,94966.59
2023-06-27T20:07:36.366Z,94975.78
2023-06-27T20:10:13.982Z,94974.50
2023-06-27T20:12:43.203Z,94977.22
2023-06-27T20:15:10.269Z,94984.50
2023-06-27T20:17:37.790Z,94988.28
2023-06-27T20:20:06.952Z,94988.28
2023-06-27T20:22:33.776Z,94993.66
2023-06-27T20:25:01.396Z,94992.41
2023-06-27T20:27:28.996Z,94993.50
2023-06-27T20:29:56.884Z,94988.91
2023-06-27T20:32:23.482Z,94996.50
2023-06-27T20:34:50.263Z,94995.25
2023-06-27T20:37:16.979Z,94987.06
2023-06-27T20:39:43.497Z,94987.69
2023-06-27T20:42:11.037Z,94997.66
2023-06-27T20:44:37.658Z,94994.16
2023-06-27T20:47:06.053Z,94996.41
2023-06-27T20:49:32.906Z,95001.28
2023-06-27T20:52:00.115Z,95002.72
2023-06-27T20:54:26.996Z,95009.53
2023-06-27T20:56:53.946Z,95007.47
2023-06-27T20:59:22.758Z,95010.47
2023-06-27T21:01:49.460Z,95001.16
2023-06-27T21:04:17.776Z,94996.88
2023-06-27T21:06:44.524Z,95004.81
2023-06-27T21:09:11.129Z,95012.91
2023-06-27T21:11:37.635Z,95009.59
2023-06-27T21:14:04.173Z,95002.47
2023-06-27T21:16:31.102Z,95007.22
2023-06-27T21:18:59.905Z,95005.78
2023-06-27T21:21:28.043Z,94998.38
2023-06-27T21:23:54.645Z,94997.09
2023-06-27T21:26:21.228Z,94990.16
2023-06-27T21:28:47.844Z,94997.91
2023-06-27T21:31:14.380Z,95000.44
2023-06-27T21:33:42.566Z,94985.41
2023-06-27T21:36:09.116Z,94992.38
2023-06-27T21:38:37.511Z,94992.19
2023-06-27T21:41:04.061Z,94991.75
2023-06-27T21:43:30.677Z,94983.97
2023-06-27T21:45:57.222Z,94987.78
2023-06-27T21:48:23.762Z,94987.78
2023-06-27T21:50:50.282Z,94992.03
2023-06-27T21:53:16.819Z,95001.97
2023-06-27T21:55:44.780Z,95007.03
2023-06-27T21:58:11.323Z,95009.44
2023-06-27T22:00:38.243Z,95005.97
2023-06-27T22:03:05.019Z,95016.38
2023-06-27T22:05:31.735Z,95011.31
2023-06-27T22:07:58.365Z,94996.59
2023-06-27T22:10:25.547Z,94998.50
2023-06-27T22:12:54.586Z,94985.38
2023-06-27T22:15:21.308Z,94989.19
2023-06-27T22:17:49.898Z,94981.13
2023-06-27T22:20:16.736Z,94979.25
2023-06-27T22:22:43.587Z,94974.81
2023-06-27T22:25:10.137Z,94986.19
2023-06-27T22:27:36.719Z,94980.97
2023-06-27T22:30:06.028Z,94987.91
2023-06-27T22:32:32.889Z,94994.19
2023-06-27T22:34:59.430Z,94989.47
2023-06-27T22:37:26.008Z,94996.09
2023-06-27T22:39:52.762Z,95001.47
2023-06-27T22:42:19.757Z,94993.91
2023-06-27T22:44:46.340Z,94985.38
2023-06-27T22:47:14.351Z,94989.94
2023-06-27T22:49:41.000Z,94987.84
2023-06-27T22:52:08.654Z,94986.72
2023-06-27T22:54:35.211Z,94975.53
2023-06-27T22:57:01.835Z,94970.00
2023-06-27T22:59:28.812Z,94965.72
2023-06-27T23:01:55.372Z,94979.09
2023-06-27T23:04:23.367Z,94983.78
2023-06-27T23:06:49.953Z,94988.50
2023-06-27T23:09:16.683Z,95007.88
2023-06-27T23:11:43.239Z,95002.03
2023-06-27T23:14:09.889Z,95000.75
2023-06-27T23:16:36.423Z,95004.38
2023-06-27T23:19:03.679Z,95013.03
2023-06-27T23:21:35.462Z,95002.16
2023-06-27T23:24:02.218Z,94998.13
2023-06-27T23:26:35.259Z,94997.59
2023-06-27T23:29:04.846Z,94998.66
2023-06-27T23:31:35.966Z,94998.66
2023-06-27T23:34:03.472Z,95001.63
2023-06-27T23:36:37.329Z,94998.91
2023-06-27T23:39:04.030Z,95009.75
2023-06-27T23:41:30.544Z,95011.66
2023-06-27T23:43:57.063Z,95002.50
2023-06-27T23:46:23.681Z,95006.75
2023-06-27T23:48:50.327Z,95005.66
2023-06-27T23:51:16.865Z,95014.50
2023-06-27T23:53:45.672Z,95021.75
2023-06-27T23:56:12.674Z,95013.50
2023-06-27T23:58:39.328Z,95006.63
